sensor_id;sensor_type;location;lat;lon;timestamp;pressure;altitude;pressure_sealevel;temperature;humidity
13476;BME280;6810;63.824;20.288;2023-06-19T00:01:09;102017.34;;;18.93;54.10
13476;BME280;6810;63.824;20.288;2023-06-19T00:03:56;102016.06;;;18.86;54.31
13476;BME280;6810;63.824;20.288;2023-06-19T00:06:43;102028.06;;;18.82;53.92
13476;BME280;6810;63.824;20.288;2023-06-19T00:09:32;101962.84;;;18.38;54.59
13476;BME280;6810;63.824;20.288;2023-06-19T00:12:20;102017.28;;;18.70;54.59
13476;BME280;6810;63.824;20.288;2023-06-19T00:15:07;102017.72;;;18.64;55.04
13476;BME280;6810;63.824;20.288;2023-06-19T00:17:56;102018.81;;;18.61;55.08
13476;BME280;6810;63.824;20.288;2023-06-19T00:20:43;102011.31;;;18.52;54.82
13476;BME280;6810;63.824;20.288;2023-06-19T00:23:31;102022.13;;;18.52;54.93
13476;BME280;6810;63.824;20.288;2023-06-19T00:26:18;102019.00;;;18.46;54.93
13476;BME280;6810;63.824;20.288;2023-06-19T00:29:08;102016.75;;;18.40;56.03
13476;BME280;6810;63.824;20.288;2023-06-19T00:31:56;102031.38;;;18.36;55.40
13476;BME280;6810;63.824;20.288;2023-06-19T00:34:43;102029.09;;;18.30;55.99
13476;BME280;6810;63.824;20.288;2023-06-19T00:37:30;102030.31;;;18.26;55.91
13476;BME280;6810;63.824;20.288;2023-06-19T00:40:31;102002.94;;;18.05;55.76
13476;BME280;6810;63.824;20.288;2023-06-19T00:43:18;102032.97;;;18.13;56.33
13476;BME280;6810;63.824;20.288;2023-06-19T00:46:06;102034.28;;;18.08;56.35
13476;BME280;6810;63.824;20.288;2023-06-19T00:48:54;102031.78;;;18.05;56.91
13476;BME280;6810;63.824;20.288;2023-06-19T00:51:41;102032.22;;;17.99;57.01
13476;BME280;6810;63.824;20.288;2023-06-19T00:54:30;102034.13;;;17.97;57.07
13476;BME280;6810;63.824;20.288;2023-06-19T00:57:18;102040.78;;;17.91;56.99
13476;BME280;6810;63.824;20.288;2023-06-19T01:00:05;102027.19;;;17.80;56.68
13476;BME280;6810;63.824;20.288;2023-06-19T01:02:52;102037.97;;;17.80;56.42
13476;BME280;6810;63.824;20.288;2023-06-19T01:05:46;102019.34;;;17.63;56.67
13476;BME280;6810;63.824;20.288;2023-06-19T01:08:44;102032.53;;;17.68;56.65
13476;BME280;6810;63.824;20.288;2023-06-19T01:11:37;102039.75;;;17.67;57.14
13476;BME280;6810;63.824;20.288;2023-06-19T01:14:39;102035.53;;;17.63;56.30
13476;BME280;6810;63.824;20.288;2023-06-19T01:17:30;102038.44;;;17.60;56.65
13476;BME280;6810;63.824;20.288;2023-06-19T01:20:22;102044.03;;;17.57;56.62
13476;BME280;6810;63.824;20.288;2023-06-19T01:23:10;102033.56;;;17.53;57.42
13476;BME280;6810;63.824;20.288;2023-06-19T01:25:58;102046.38;;;17.49;56.59
13476;BME280;6810;63.824;20.288;2023-06-19T01:28:45;102039.34;;;17.47;57.25
13476;BME280;6810;63.824;20.288;2023-06-19T01:32:04;102037.03;;;17.41;57.05
13476;BME280;6810;63.824;20.288;2023-06-19T01:34:57;102042.53;;;17.39;56.84
13476;BME280;6810;63.824;20.288;2023-06-19T01:37:46;101985.41;;;17.06;56.71
13476;BME280;6810;63.824;20.288;2023-06-19T01:40:39;102014.44;;;17.15;56.64
13476;BME280;6810;63.824;20.288;2023-06-19T01:43:29;102028.41;;;17.21;57.36
13476;BME280;6810;63.824;20.288;2023-06-19T01:46:18;102034.56;;;17.23;57.77
13476;BME280;6810;63.824;20.288;2023-06-19T01:49:08;102032.06;;;17.20;57.26
13476;BME280;6810;63.824;20.288;2023-06-19T01:51:56;102023.41;;;17.15;57.37
13476;BME280;6810;63.824;20.288;2023-06-19T01:54:43;102020.81;;;17.14;57.51
13476;BME280;6810;63.824;20.288;2023-06-19T01:57:31;102027.28;;;17.11;57.75
13476;BME280;6810;63.824;20.288;2023-06-19T02:00:18;102030.06;;;17.10;57.61
13476;BME280;6810;63.824;20.288;2023-06-19T02:03:05;102006.88;;;16.93;57.85
13476;BME280;6810;63.824;20.288;2023-06-19T02:05:53;102000.84;;;16.90;58.01
13476;BME280;6810;63.824;20.288;2023-06-19T02:08:40;102030.47;;;17.04;58.19
13476;BME280;6810;63.824;20.288;2023-06-19T02:11:27;102028.22;;;16.96;57.95
13476;BME280;6810;63.824;20.288;2023-06-19T02:14:14;102025.44;;;16.98;58.88
13476;BME280;6810;63.824;20.288;2023-06-19T02:17:01;102031.59;;;17.00;58.85
13476;BME280;6810;63.824;20.288;2023-06-19T02:19:48;102028.03;;;16.99;58.33
13476;BME280;6810;63.824;20.288;2023-06-19T02:22:55;102019.50;;;16.93;58.51
13476;BME280;6810;63.824;20.288;2023-06-19T02:25:42;102029.00;;;16.98;58.95
13476;BME280;6810;63.824;20.288;2023-06-19T02:28:29;102030.19;;;16.94;59.05
13476;BME280;6810;63.824;20.288;2023-06-19T02:31:17;102033.72;;;16.95;58.75
13476;BME280;6810;63.824;20.288;2023-06-19T02:34:04;102032.88;;;16.94;58.71
13476;BME280;6810;63.824;20.288;2023-06-19T02:36:51;102035.47;;;16.96;59.11
13476;BME280;6810;63.824;20.288;2023-06-19T02:39:39;102019.50;;;16.93;58.63
13476;BME280;6810;63.824;20.288;2023-06-19T02:42:26;102017.66;;;16.93;58.98
13476;BME280;6810;63.824;20.288;2023-06-19T02:45:13;102024.59;;;16.97;59.63
13476;BME280;6810;63.824;20.288;2023-06-19T02:48:02;102014.97;;;16.93;59.32
13476;BME280;6810;63.824;20.288;2023-06-19T02:50:49;102027.19;;;16.99;59.44
13476;BME280;6810;63.824;20.288;2023-06-19T02:53:36;102014.03;;;16.94;59.40
13476;BME280;6810;63.824;20.288;2023-06-19T02:56:25;101974.03;;;16.74;59.17
13476;BME280;6810;63.824;20.288;2023-06-19T02:59:16;102024.41;;;17.00;59.16
13476;BME280;6810;63.824;20.288;2023-06-19T03:01:43;102027.09;;;17.00;59.63
13476;BME280;6810;63.824;20.288;2023-06-19T03:04:13;102021.72;;;17.00;59.61
13476;BME280;6810;63.824;20.288;2023-06-19T03:06:40;102024.41;;;17.00;59.91
13476;BME280;6810;63.824;20.288;2023-06-19T03:09:07;102022.59;;;17.01;59.66
13476;BME280;6810;63.824;20.288;2023-06-19T03:11:41;102021.50;;;17.03;59.96
13476;BME280;6810;63.824;20.288;2023-06-19T03:14:10;102024.97;;;17.05;59.77
13476;BME280;6810;63.824;20.288;2023-06-19T03:16:37;102012.34;;;17.06;60.21
13476;BME280;6810;63.824;20.288;2023-06-19T03:19:04;102019.28;;;17.10;60.17
13476;BME280;6810;63.824;20.288;2023-06-19T03:21:32;102019.94;;;17.13;60.31
13476;BME280;6810;63.824;20.288;2023-06-19T03:24:00;102008.13;;;17.16;60.25
13476;BME280;6810;63.824;20.288;2023-06-19T03:26:27;102010.59;;;17.19;59.78
13476;BME280;6810;63.824;20.288;2023-06-19T03:28:59;102013.94;;;17.22;59.73
13476;BME280;6810;63.824;20.288;2023-06-19T03:31:31;102011.16;;;17.24;60.34
13476;BME280;6810;63.824;20.288;2023-06-19T03:33:58;102001.44;;;17.21;60.04
13476;BME280;6810;63.824;20.288;2023-06-19T03:36:25;102008.47;;;17.24;59.80
13476;BME280;6810;63.824;20.288;2023-06-19T03:38:54;102023.28;;;17.31;60.00
13476;BME280;6810;63.824;20.288;2023-06-19T03:41:26;101974.53;;;17.07;60.02
13476;BME280;6810;63.824;20.288;2023-06-19T03:43:54;102015.78;;;17.36;60.23
13476;BME280;6810;63.824;20.288;2023-06-19T03:46:22;102028.06;;;17.40;60.62
13476;BME280;6810;63.824;20.288;2023-06-19T03:48:51;101981.50;;;17.24;60.59
13476;BME280;6810;63.824;20.288;2023-06-19T03:51:18;102013.25;;;17.47;60.74
13476;BME280;6810;63.824;20.288;2023-06-19T03:53:45;102016.59;;;17.51;60.57
13476;BME280;6810;63.824;20.288;2023-06-19T03:56:13;102019.19;;;17.52;60.17
13476;BME280;6810;63.824;20.288;2023-06-19T03:58:42;102011.56;;;17.59;60.25
13476;BME280;6810;63.824;20.288;2023-06-19T04:01:09;101956.19;;;17.26;60.39
13476;BME280;6810;63.824;20.288;2023-06-19T04:03:36;102011.06;;;17.66;60.03
13476;BME280;6810;63.824;20.288;2023-06-19T04:06:07;102012.56;;;17.70;60.61
13476;BME280;6810;63.824;20.288;2023-06-19T04:08:38;102014.00;;;17.76;60.00
13476;BME280;6810;63.824;20.288;2023-06-19T04:11:05;102005.16;;;17.74;60.06
13476;BME280;6810;63.824;20.288;2023-06-19T04:13:32;101998.78;;;17.75;60.70
13476;BME280;6810;63.824;20.288;2023-06-19T04:15:59;102005.94;;;17.88;60.73
13476;BME280;6810;63.824;20.288;2023-06-19T04:18:27;102007.34;;;17.94;59.98
13476;BME280;6810;63.824;20.288;2023-06-19T04:20:56;102010.63;;;17.99;60.09
13476;BME280;6810;63.824;20.288;2023-06-19T04:23:23;101996.25;;;17.98;59.86
13476;BME280;6810;63.824;20.288;2023-06-19T04:25:50;101951.44;;;17.83;59.81
13476;BME280;6810;63.824;20.288;2023-06-19T04:28:17;101989.13;;;18.10;60.06
13476;BME280;6810;63.824;20.288;2023-06-19T04:30:44;102001.03;;;18.20;59.79
13476;BME280;6810;63.824;20.288;2023-06-19T04:33:11;101993.47;;;18.25;59.54
13476;BME280;6810;63.824;20.288;2023-06-19T04:35:38;102004.69;;;18.31;60.11
13476;BME280;6810;63.824;20.288;2023-06-19T04:38:09;101992.84;;;18.34;60.01
13476;BME280;6810;63.824;20.288;2023-06-19T04:40:36;101994.06;;;18.42;60.14
13476;BME280;6810;63.824;20.288;2023-06-19T04:43:03;101991.91;;;18.47;59.17
13476;BME280;6810;63.824;20.288;2023-06-19T04:45:32;101991.34;;;18.55;59.90
13476;BME280;6810;63.824;20.288;2023-06-19T04:48:00;101959.16;;;18.39;59.14
13476;BME280;6810;63.824;20.288;2023-06-19T04:50:30;101997.59;;;18.68;59.02
13476;BME280;6810;63.824;20.288;2023-06-19T04:52:57;101997.16;;;18.74;58.79
13476;BME280;6810;63.824;20.288;2023-06-19T04:55:24;101980.94;;;18.74;59.17
13476;BME280;6810;63.824;20.288;2023-06-19T04:57:52;101998.97;;;18.86;58.34
13476;BME280;6810;63.824;20.288;2023-06-19T05:00:19;102001.03;;;18.95;57.76
13476;BME280;6810;63.824;20.288;2023-06-19T05:02:47;101964.50;;;18.77;58.19
13476;BME280;6810;63.824;20.288;2023-06-19T05:05:14;102005.44;;;19.09;57.77
13476;BME280;6810;63.824;20.288;2023-06-19T05:07:41;102004.97;;;19.15;57.25
13476;BME280;6810;63.824;20.288;2023-06-19T05:10:18;102008.81;;;19.23;57.23
13476;BME280;6810;63.824;20.288;2023-06-19T05:12:46;102002.03;;;19.30;57.14
13476;BME280;6810;63.824;20.288;2023-06-19T05:15:13;101991.72;;;19.35;56.85
13476;BME280;6810;63.824;20.288;2023-06-19T05:17:40;102002.16;;;19.52;56.81
13476;BME280;6810;63.824;20.288;2023-06-19T05:20:08;102010.44;;;19.62;56.48
13476;BME280;6810;63.824;20.288;2023-06-19T05:22:35;102010.75;;;19.70;56.31
13476;BME280;6810;63.824;20.288;2023-06-19T05:25:03;102011.00;;;19.78;55.79
13476;BME280;6810;63.824;20.288;2023-06-19T05:27:30;102007.59;;;19.87;55.85
13476;BME280;6810;63.824;20.288;2023-06-19T05:29:57;102010.56;;;19.95;55.90
13476;BME280;6810;63.824;20.288;2023-06-19T05:32:24;102017.16;;;20.03;55.25
13476;BME280;6810;63.824;20.288;2023-06-19T05:34:52;102012.75;;;20.13;54.92
13476;BME280;6810;63.824;20.288;2023-06-19T05:37:19;101961.13;;;19.93;54.63
13476;BME280;6810;63.824;20.288;2023-06-19T05:39:46;101986.72;;;20.23;54.22
13476;BME280;6810;63.824;20.288;2023-06-19T05:42:13;102014.34;;;20.50;53.78
13476;BME280;6810;63.824;20.288;2023-06-19T05:44:40;101993.63;;;20.49;52.80
13476;BME280;6810;63.824;20.288;2023-06-19T05:47:07;102006.81;;;20.76;52.94
13476;BME280;6810;63.824;20.288;2023-06-19T05:49:34;102015.72;;;20.89;53.34
13476;BME280;6810;63.824;20.288;2023-06-19T05:52:01;102011.28;;;20.99;52.89
13476;BME280;6810;63.824;20.288;2023-06-19T05:54:28;102014.38;;;21.06;52.87
13476;BME280;6810;63.824;20.288;2023-06-19T05:56:55;102012.63;;;21.16;52.86
13476;BME280;6810;63.824;20.288;2023-06-19T05:59:22;102014.59;;;21.25;53.21
13476;BME280;6810;63.824;20.288;2023-06-19T06:01:49;102013.81;;;21.34;52.58
13476;BME280;6810;63.824;20.288;2023-06-19T06:04:20;102014.06;;;21.42;52.19
13476;BME280;6810;63.824;20.288;2023-06-19T06:06:48;102010.56;;;21.51;52.06
13476;BME280;6810;63.824;20.288;2023-06-19T06:09:16;102007.09;;;21.60;51.84
13476;BME280;6810;63.824;20.288;2023-06-19T06:11:43;102003.72;;;21.67;51.70
13476;BME280;6810;63.824;20.288;2023-06-19T06:14:10;102005.81;;;21.75;51.61
13476;BME280;6810;63.824;20.288;2023-06-19T06:16:39;102007.06;;;21.82;51.45
13476;BME280;6810;63.824;20.288;2023-06-19T06:19:06;102010.97;;;21.89;51.04
13476;BME280;6810;63.824;20.288;2023-06-19T06:21:33;101999.00;;;21.91;50.64
13476;BME280;6810;63.824;20.288;2023-06-19T06:24:02;102004.34;;;22.02;50.32
13476;BME280;6810;63.824;20.288;2023-06-19T06:28:56;102002.31;;;22.15;49.38
13476;BME280;6810;63.824;20.288;2023-06-19T06:31:23;101978.97;;;22.13;49.71
13476;BME280;6810;63.824;20.288;2023-06-19T06:33:51;102001.59;;;22.34;49.71
13476;BME280;6810;63.824;20.288;2023-06-19T06:36:18;101945.41;;;22.14;50.01
13476;BME280;6810;63.824;20.288;2023-06-19T06:39:01;102001.44;;;22.56;49.81
13476;BME280;6810;63.824;20.288;2023-06-19T06:41:28;102000.63;;;22.65;49.07
13476;BME280;6810;63.824;20.288;2023-06-19T06:43:56;101989.22;;;22.71;48.80
13476;BME280;6810;63.824;20.288;2023-06-19T06:46:23;101993.59;;;22.83;48.43
13476;BME280;6810;63.824;20.288;2023-06-19T06:48:50;101988.28;;;22.91;48.19
13476;BME280;6810;63.824;20.288;2023-06-19T06:51:17;101994.06;;;22.98;47.94
13476;BME280;6810;63.824;20.288;2023-06-19T06:53:47;101990.50;;;23.07;46.94
13476;BME280;6810;63.824;20.288;2023-06-19T06:56:14;101996.13;;;23.15;47.23
13476;BME280;6810;63.824;20.288;2023-06-19T06:58:41;101991.41;;;23.17;46.03
13476;BME280;6810;63.824;20.288;2023-06-19T07:01:08;101985.16;;;23.26;46.51
13476;BME280;6810;63.824;20.288;2023-06-19T07:03:35;101988.03;;;23.34;45.73
13476;BME280;6810;63.824;20.288;2023-06-19T07:06:03;101981.03;;;23.41;45.61
13476;BME280;6810;63.824;20.288;2023-06-19T07:08:30;101984.06;;;23.47;46.65
13476;BME280;6810;63.824;20.288;2023-06-19T07:10:57;101981.47;;;23.55;46.33
13476;BME280;6810;63.824;20.288;2023-06-19T07:13:25;101978.75;;;23.65;45.99
13476;BME280;6810;63.824;20.288;2023-06-19T07:15:52;101984.94;;;23.76;46.01
13476;BME280;6810;63.824;20.288;2023-06-19T07:18:19;101982.31;;;23.84;45.20
13476;BME280;6810;63.824;20.288;2023-06-19T07:20:46;101977.31;;;23.89;44.99
13476;BME280;6810;63.824;20.288;2023-06-19T07:23:14;101962.97;;;23.87;45.36
13476;BME280;6810;63.824;20.288;2023-06-19T07:25:41;101980.47;;;24.04;44.11
13476;BME280;6810;63.824;20.288;2023-06-19T07:28:08;101965.00;;;24.05;43.92
13476;BME280;6810;63.824;20.288;2023-06-19T07:30:35;101973.75;;;24.18;42.44
13476;BME280;6810;63.824;20.288;2023-06-19T07:33:02;101976.72;;;24.24;41.77
13476;BME280;6810;63.824;20.288;2023-06-19T07:35:29;101974.13;;;24.32;41.58
13476;BME280;6810;63.824;20.288;2023-06-19T07:37:56;101971.53;;;24.40;41.31
13476;BME280;6810;63.824;20.288;2023-06-19T07:40:23;101978.09;;;24.47;40.85
13476;BME280;6810;63.824;20.288;2023-06-19T07:42:51;101963.88;;;24.53;41.71
13476;BME280;6810;63.824;20.288;2023-06-19T07:45:18;101970.63;;;24.59;41.04
13476;BME280;6810;63.824;20.288;2023-06-19T07:47:54;101960.09;;;24.64;40.65
13476;BME280;6810;63.824;20.288;2023-06-19T07:50:21;101964.97;;;24.70;39.42
13476;BME280;6810;63.824;20.288;2023-06-19T07:52:52;101953.81;;;24.73;38.94
13476;BME280;6810;63.824;20.288;2023-06-19T07:55:20;101956.63;;;24.81;39.14
13476;BME280;6810;63.824;20.288;2023-06-19T07:57:47;101962.75;;;24.92;39.31
13476;BME280;6810;63.824;20.288;2023-06-19T08:00:14;101960.97;;;25.01;38.74
13476;BME280;6810;63.824;20.288;2023-06-19T08:02:41;101953.91;;;25.08;37.68
13476;BME280;6810;63.824;20.288;2023-06-19T08:05:10;101948.97;;;25.11;36.97
13476;BME280;6810;63.824;20.288;2023-06-19T08:07:37;101960.41;;;25.24;36.78
13476;BME280;6810;63.824;20.288;2023-06-19T08:10:05;101951.44;;;25.32;36.57
13476;BME280;6810;63.824;20.288;2023-06-19T08:12:42;101950.53;;;25.41;36.91
13476;BME280;6810;63.824;20.288;2023-06-19T08:15:12;101951.47;;;25.49;37.07
13476;BME280;6810;63.824;20.288;2023-06-19T08:17:43;101946.72;;;25.52;37.78
13476;BME280;6810;63.824;20.288;2023-06-19T08:20:19;101953.66;;;25.64;39.25
13476;BME280;6810;63.824;20.288;2023-06-19T08:22:47;101945.31;;;25.65;39.45
13476;BME280;6810;63.824;20.288;2023-06-19T08:25:14;101949.75;;;25.66;40.05
13476;BME280;6810;63.824;20.288;2023-06-19T08:27:41;101955.63;;;25.71;39.77
13476;BME280;6810;63.824;20.288;2023-06-19T08:30:08;101948.28;;;25.72;39.19
13476;BME280;6810;63.824;20.288;2023-06-19T08:32:35;101947.25;;;25.73;39.94
13476;BME280;6810;63.824;20.288;2023-06-19T08:35:03;101942.97;;;25.70;39.65
13476;BME280;6810;63.824;20.288;2023-06-19T08:37:30;101938.59;;;25.77;39.72
13476;BME280;6810;63.824;20.288;2023-06-19T08:39:57;101945.47;;;25.81;40.24
13476;BME280;6810;63.824;20.288;2023-06-19T08:42:24;101941.72;;;25.82;40.64
13476;BME280;6810;63.824;20.288;2023-06-19T08:44:52;101946.56;;;25.88;40.88
13476;BME280;6810;63.824;20.288;2023-06-19T08:47:20;101939.38;;;25.87;41.33
13476;BME280;6810;63.824;20.288;2023-06-19T08:49:47;101938.75;;;25.93;42.01
13476;BME280;6810;63.824;20.288;2023-06-19T08:52:15;101937.41;;;25.97;42.04
13476;BME280;6810;63.824;20.288;2023-06-19T08:54:42;101936.13;;;26.01;42.21
13476;BME280;6810;63.824;20.288;2023-06-19T08:57:12;101878.44;;;25.69;42.14
13476;BME280;6810;63.824;20.288;2023-06-19T08:59:47;101879.50;;;25.76;41.71
13476;BME280;6810;63.824;20.288;2023-06-19T09:02:17;101938.38;;;26.06;41.62
13476;BME280;6810;63.824;20.288;2023-06-19T09:04:45;101931.88;;;26.07;41.85
13476;BME280;6810;63.824;20.288;2023-06-19T09:07:12;101935.16;;;26.10;41.32
13476;BME280;6810;63.824;20.288;2023-06-19T09:09:47;101931.22;;;26.13;41.26
13476;BME280;6810;63.824;20.288;2023-06-19T09:12:14;101932.94;;;26.14;40.80
13476;BME280;6810;63.824;20.288;2023-06-19T09:14:45;101919.75;;;26.09;41.19
13476;BME280;6810;63.824;20.288;2023-06-19T09:17:20;101928.88;;;26.18;40.80
13476;BME280;6810;63.824;20.288;2023-06-19T09:19:51;101931.97;;;26.23;40.90
13476;BME280;6810;63.824;20.288;2023-06-19T09:22:21;101922.78;;;26.24;40.52
13476;BME280;6810;63.824;20.288;2023-06-19T09:24:50;101925.03;;;26.28;39.87
13476;BME280;6810;63.824;20.288;2023-06-19T09:27:19;101901.06;;;26.22;39.74
13476;BME280;6810;63.824;20.288;2023-06-19T09:29:48;101921.16;;;26.39;39.90
13476;BME280;6810;63.824;20.288;2023-06-19T09:34:45;101921.03;;;26.48;39.49
13476;BME280;6810;63.824;20.288;2023-06-19T09:37:12;101915.25;;;26.51;39.44
13476;BME280;6810;63.824;20.288;2023-06-19T09:39:41;101916.28;;;26.58;39.11
13476;BME280;6810;63.824;20.288;2023-06-19T09:42:12;101915.50;;;26.66;39.00
13476;BME280;6810;63.824;20.288;2023-06-19T09:44:41;101921.88;;;26.74;38.81
13476;BME280;6810;63.824;20.288;2023-06-19T09:47:18;101906.31;;;26.75;38.58
13476;BME280;6810;63.824;20.288;2023-06-19T09:49:54;101919.03;;;26.92;38.26
13476;BME280;6810;63.824;20.288;2023-06-19T09:52:22;101879.69;;;27.01;37.93
13476;BME280;6810;63.824;20.288;2023-06-19T09:54:53;101912.88;;;27.72;37.24
13476;BME280;6810;63.824;20.288;2023-06-19T09:57:21;101920.78;;;28.15;36.92
13476;BME280;6810;63.824;20.288;2023-06-19T09:59:56;101911.44;;;28.56;36.21
13476;BME280;6810;63.824;20.288;2023-06-19T10:02:39;101897.25;;;28.83;35.35
13476;BME280;6810;63.824;20.288;2023-06-19T10:05:07;101907.97;;;29.09;35.22
13476;BME280;6810;63.824;20.288;2023-06-19T10:07:43;101905.50;;;29.22;34.45
13476;BME280;6810;63.824;20.288;2023-06-19T10:10:12;101907.50;;;29.28;34.60
13476;BME280;6810;63.824;20.288;2023-06-19T10:12:49;101909.31;;;29.43;34.30
13476;BME280;6810;63.824;20.288;2023-06-19T10:15:21;101856.03;;;29.22;32.35
13476;BME280;6810;63.824;20.288;2023-06-19T10:17:53;101902.34;;;29.55;31.99
13476;BME280;6810;63.824;20.288;2023-06-19T10:20:35;101869.38;;;29.33;32.37
13476;BME280;6810;63.824;20.288;2023-06-19T10:23:21;101910.59;;;29.55;33.79
13476;BME280;6810;63.824;20.288;2023-06-19T10:25:57;101903.28;;;29.62;33.81
13476;BME280;6810;63.824;20.288;2023-06-19T10:28:31;101911.53;;;29.70;34.09
13476;BME280;6810;63.824;20.288;2023-06-19T10:31:00;101905.28;;;29.76;33.30
13476;BME280;6810;63.824;20.288;2023-06-19T10:33:33;101920.00;;;29.83;33.99
13476;BME280;6810;63.824;20.288;2023-06-19T10:36:01;101877.66;;;29.70;33.53
13476;BME280;6810;63.824;20.288;2023-06-19T10:38:41;101907.53;;;29.95;33.04
13476;BME280;6810;63.824;20.288;2023-06-19T10:41:21;101905.53;;;30.04;33.52
13476;BME280;6810;63.824;20.288;2023-06-19T10:44:03;101904.59;;;30.11;33.15
13476;BME280;6810;63.824;20.288;2023-06-19T10:46:33;101903.38;;;30.14;32.71
13476;BME280;6810;63.824;20.288;2023-06-19T10:49:04;101886.47;;;30.02;32.57
13476;BME280;6810;63.824;20.288;2023-06-19T10:51:38;101869.19;;;29.94;33.07
13476;BME280;6810;63.824;20.288;2023-06-19T10:54:07;101896.72;;;30.08;33.54
13476;BME280;6810;63.824;20.288;2023-06-19T10:56:34;101900.91;;;30.19;32.73
13476;BME280;6810;63.824;20.288;2023-06-19T10:59:09;101886.16;;;30.20;32.50
13476;BME280;6810;63.824;20.288;2023-06-19T11:04:08;101890.78;;;30.34;32.71
13476;BME280;6810;63.824;20.288;2023-06-19T11:06:37;101894.22;;;30.36;32.79
13476;BME280;6810;63.824;20.288;2023-06-19T11:09:08;101896.41;;;30.41;32.38
13476;BME280;6810;63.824;20.288;2023-06-19T11:11:41;101897.53;;;30.46;32.65
13476;BME280;6810;63.824;20.288;2023-06-19T11:14:09;101894.06;;;30.52;32.32
13476;BME280;6810;63.824;20.288;2023-06-19T11:16:42;101895.19;;;30.58;32.30
13476;BME280;6810;63.824;20.288;2023-06-19T11:19:15;101893.09;;;30.60;32.06
13476;BME280;6810;63.824;20.288;2023-06-19T11:21:46;101899.91;;;30.64;31.87
13476;BME280;6810;63.824;20.288;2023-06-19T11:24:14;101893.84;;;30.68;31.49
13476;BME280;6810;63.824;20.288;2023-06-19T11:26:44;101868.31;;;30.60;32.46
13476;BME280;6810;63.824;20.288;2023-06-19T11:31:48;101886.34;;;30.91;31.63
13476;BME280;6810;63.824;20.288;2023-06-19T11:34:16;101884.50;;;30.98;31.37
13476;BME280;6810;63.824;20.288;2023-06-19T11:36:47;101880.34;;;31.02;31.77
13476;BME280;6810;63.824;20.288;2023-06-19T11:39:15;101886.94;;;31.08;31.46
13476;BME280;6810;63.824;20.288;2023-06-19T11:41:45;101882.75;;;31.12;31.69
13476;BME280;6810;63.824;20.288;2023-06-19T11:44:12;101877.50;;;31.17;30.71
13476;BME280;6810;63.824;20.288;2023-06-19T11:46:42;101881.66;;;31.27;30.68
13476;BME280;6810;63.824;20.288;2023-06-19T11:49:14;101877.72;;;31.30;30.37
13476;BME280;6810;63.824;20.288;2023-06-19T11:51:42;101877.88;;;31.28;30.87
13476;BME280;6810;63.824;20.288;2023-06-19T11:54:10;101869.59;;;31.28;30.94
13476;BME280;6810;63.824;20.288;2023-06-19T11:56:38;101872.00;;;31.31;30.68
13476;BME280;6810;63.824;20.288;2023-06-19T11:59:07;101841.97;;;31.22;29.99
13476;BME280;6810;63.824;20.288;2023-06-19T12:01:36;101868.66;;;31.36;29.98
13476;BME280;6810;63.824;20.288;2023-06-19T12:04:03;101869.88;;;31.33;29.20
13476;BME280;6810;63.824;20.288;2023-06-19T12:06:31;101863.34;;;31.34;29.00
13476;BME280;6810;63.824;20.288;2023-06-19T12:08:58;101873.56;;;31.40;29.45
13476;BME280;6810;63.824;20.288;2023-06-19T12:11:26;101868.50;;;31.44;29.06
13476;BME280;6810;63.824;20.288;2023-06-19T12:13:53;101867.59;;;31.37;27.27
13476;BME280;6810;63.824;20.288;2023-06-19T12:16:23;101826.19;;;30.95;26.59
13476;BME280;6810;63.824;20.288;2023-06-19T12:18:50;101869.94;;;31.04;24.62
13476;BME280;6810;63.824;20.288;2023-06-19T12:21:24;101870.00;;;30.90;24.88
13476;BME280;6810;63.824;20.288;2023-06-19T12:24:03;101865.75;;;30.87;25.77
13476;BME280;6810;63.824;20.288;2023-06-19T12:26:31;101868.75;;;30.92;24.20
13476;BME280;6810;63.824;20.288;2023-06-19T12:29:04;101860.69;;;30.91;23.81
13476;BME280;6810;63.824;20.288;2023-06-19T12:31:31;101857.66;;;30.86;22.15
13476;BME280;6810;63.824;20.288;2023-06-19T12:33:59;101857.78;;;30.78;23.45
13476;BME280;6810;63.824;20.288;2023-06-19T12:36:28;101848.91;;;30.68;23.93
13476;BME280;6810;63.824;20.288;2023-06-19T12:38:59;101843.78;;;30.65;24.52
13476;BME280;6810;63.824;20.288;2023-06-19T12:41:27;101843.00;;;30.71;24.73
13476;BME280;6810;63.824;20.288;2023-06-19T12:43:54;101838.88;;;30.75;25.51
13476;BME280;6810;63.824;20.288;2023-06-19T12:46:21;101841.25;;;30.78;25.27
13476;BME280;6810;63.824;20.288;2023-06-19T12:48:49;101834.69;;;30.79;25.75
13476;BME280;6810;63.824;20.288;2023-06-19T12:51:18;101838.09;;;30.81;25.94
13476;BME280;6810;63.824;20.288;2023-06-19T12:53:45;101827.47;;;30.78;26.88
13476;BME280;6810;63.824;20.288;2023-06-19T12:56:12;101828.78;;;30.82;26.54
13476;BME280;6810;63.824;20.288;2023-06-19T12:58:40;101832.13;;;30.77;26.79
13476;BME280;6810;63.824;20.288;2023-06-19T13:01:07;101827.53;;;30.70;26.92
13476;BME280;6810;63.824;20.288;2023-06-19T13:03:34;101833.81;;;30.64;28.43
13476;BME280;6810;63.824;20.288;2023-06-19T13:06:02;101818.84;;;30.52;27.94
13476;BME280;6810;63.824;20.288;2023-06-19T13:08:29;101820.94;;;30.50;28.31
13476;BME280;6810;63.824;20.288;2023-06-19T13:10:56;101834.03;;;30.48;28.13
13476;BME280;6810;63.824;20.288;2023-06-19T13:13:23;101820.38;;;30.40;29.02
13476;BME280;6810;63.824;20.288;2023-06-19T13:15:50;101787.25;;;30.18;29.30
13476;BME280;6810;63.824;20.288;2023-06-19T13:18:17;101795.16;;;30.21;29.34
13476;BME280;6810;63.824;20.288;2023-06-19T13:20:45;101819.63;;;30.31;29.73
13476;BME280;6810;63.824;20.288;2023-06-19T13:23:14;101817.44;;;30.26;29.28
13476;BME280;6810;63.824;20.288;2023-06-19T13:25:42;101818.34;;;30.19;29.10
13476;BME280;6810;63.824;20.288;2023-06-19T13:28:09;101801.19;;;30.02;30.12
13476;BME280;6810;63.824;20.288;2023-06-19T13:30:36;101819.50;;;29.95;30.37